Herk-de-Stad, Belgium
Current Conditions -  °F | °C
As of 11:54 AM on Monday 20 Oct 2014 (Local Time) from EBDT Reporting Station
Broken Clouds Broken Clouds  
Wind Chill: 59°   Ceiling: 3000
Heat Index: 59°   Visibility: 6mi
Dew Point: 52°   Wind: 9mph
Humidity: 77%   Direction: 250°WSW
Pressure: 30.06"   Gusts: NA
Location:  50.94°N, 5.17°E
Report Text: EBDT 200954Z 25008KT 9999 FEW020 BKN030 15/11 Q1018 BLU BLU TEMPO WHT
Loading
Personal Weather Stations






























Interactive Weather Map
Tropical Storm Tracking
New forecast layout! Learn more

10-Day Weather Forecast

Advertisements
Track Severe Weather on mobile